Time;durP1;ratioP1;P1;durP2;ratioP2;P2;SDS_P1;SDS_P2;PMS_P1;PMS_P2;Temp;Humidity;BMP_temperature;BMP_pressure;BME280_temperature;BME280_humidity;BME280_pressure;Samples;Min_cycle;Max_cycle;Signal;HPM_P1;HPM_P2
2022/09/09 00:01:41;;;;;;;1.95;1.20;;;20.20;67.90;;;;;;4138431;28;20512;-48
2022/09/09 00:04:22;;;;;;;4.28;1.25;;;20.20;68.00;;;;;;4137856;28;20136;-47
2022/09/09 00:07:06;;;;;;;3.42;1.25;;;20.20;68.30;;;;;;4135796;28;20048;-48
2022/09/09 00:09:33;;;;;;;2.83;1.30;;;20.20;68.30;;;;;;4137777;28;20535;-47
2022/09/09 00:12:05;;;;;;;3.33;1.42;;;20.20;68.50;;;;;;4115633;28;20495;-49
2022/09/09 00:14:35;;;;;;;2.03;1.35;;;20.20;68.30;;;;;;4137801;28;20038;-50
2022/09/09 00:17:04;;;;;;;3.80;1.42;;;20.20;68.20;;;;;;4138200;28;20044;-49
2022/09/09 00:19:45;;;;;;;2.47;1.55;;;20.20;68.30;;;;;;4136277;28;20050;-46
2022/09/09 00:22:14;;;;;;;1.85;0.82;;;20.20;68.20;;;;;;4136306;28;20045;-45
2022/09/09 00:25:04;;;;;;;2.10;1.20;;;20.20;68.30;;;;;;4138046;28;20042;-46
2022/09/09 00:27:42;;;;;;;1.20;0.90;;;20.20;68.20;;;;;;4138469;28;20053;-55
2022/09/09 00:30:08;;;;;;;8.00;1.52;;;20.20;68.10;;;;;;4135998;28;20042;-48
2022/09/09 00:32:35;;;;;;;5.00;1.25;;;20.20;68.30;;;;;;4136274;28;20050;-48
2022/09/09 00:35:09;;;;;;;1.35;1.05;;;20.20;68.20;;;;;;4139340;28;20054;-48
2022/09/09 00:37:33;;;;;;;1.40;1.08;;;20.20;68.20;;;;;;4137744;28;20121;-48
2022/09/09 00:40:00;;;;;;;2.22;1.42;;;20.20;68.30;;;;;;4137374;28;20076;-46
2022/09/09 00:43:15;;;;;;;2.15;1.00;;;20.20;68.20;;;;;;4139804;28;20041;-47
2022/09/09 00:46:14;;;;;;;4.28;1.30;;;20.20;68.20;;;;;;4134672;28;20056;-45
2022/09/09 00:48:56;;;;;;;3.28;1.27;;;20.20;68.30;;;;;;4136430;28;20034;-45
2022/09/09 00:51:46;;;;;;;6.32;1.17;;;20.20;68.60;;;;;;4094531;28;20066;-44
2022/09/09 00:54:10;;;;;;;2.92;1.20;;;20.20;68.70;;;;;;4123433;28;20046;-44
2022/09/09 00:56:42;;;;;;;2.67;0.80;;;20.30;68.70;;;;;;4138789;28;20053;-43
2022/09/09 00:59:04;;;;;;;1.25;0.90;;;20.30;68.90;;;;;;4140485;28;20058;-43
2022/09/09 01:01:27;;;;;;;4.63;1.15;;;20.30;69.00;;;;;;4136120;28;20073;-47
2022/09/09 01:03:59;;;;;;;4.22;1.25;;;20.40;68.80;;;;;;4139301;28;20053;-45
2022/09/09 01:06:36;;;;;;;1.83;0.80;;;20.40;68.90;;;;;;4137352;28;20050;-48
2022/09/09 01:09:10;;;;;;;3.30;1.27;;;20.40;68.90;;;;;;4138546;28;20048;-52
2022/09/09 01:12:06;;;;;;;3.53;0.93;;;20.40;68.90;;;;;;4139382;28;20040;-45
2022/09/09 01:14:41;;;;;;;2.63;1.00;;;20.50;69.00;;;;;;4136745;28;20054;-47
2022/09/09 01:17:53;;;;;;;1.90;1.00;;;20.50;69.00;;;;;;4136572;28;20049;-48
2022/09/09 01:20:21;;;;;;;3.20;1.02;;;20.50;69.00;;;;;;4122227;28;20041;-44
2022/09/09 01:23:19;;;;;;;2.85;0.73;;;20.50;69.00;;;;;;4125663;28;20447;-47
2022/09/09 01:25:45;;;;;;;3.13;0.90;;;20.60;68.90;;;;;;4126594;28;20088;-43
2022/09/09 01:28:11;;;;;;;1.90;0.70;;;20.60;68.70;;;;;;4117336;28;20038;-47
2022/09/09 01:30:38;;;;;;;0.85;0.60;;;20.70;68.50;;;;;;4126916;28;20042;-46
2022/09/09 01:33:02;;;;;;;3.63;0.80;;;20.70;68.40;;;;;;4127221;28;20534;-47
2022/09/09 01:35:54;;;;;;;3.38;0.80;;;20.70;68.60;;;;;;4124333;28;20085;-47
2022/09/09 01:38:17;;;;;;;0.98;0.60;;;20.80;68.50;;;;;;4129191;28;20061;-49
2022/09/09 01:40:40;;;;;;;1.17;0.88;;;20.80;68.60;;;;;;4131732;28;20076;-47
2022/09/09 01:43:03;;;;;;;0.77;0.60;;;20.80;68.70;;;;;;4129227;28;20060;-47
2022/09/09 01:45:26;;;;;;;0.90;0.80;;;20.90;68.70;;;;;;4129360;28;20048;-47
2022/09/09 01:47:49;;;;;;;7.03;3.50;;;20.90;68.70;;;;;;4121386;28;20128;-48
2022/09/09 01:50:15;;;;;;;8.68;5.63;;;20.90;68.00;;;;;;4138594;28;20041;-51
2022/09/09 01:52:38;;;;;;;14.57;7.15;;;20.90;67.60;;;;;;4141364;28;20053;-49
2022/09/09 01:55:00;;;;;;;10.60;5.30;;;20.90;67.60;;;;;;4140205;28;20076;-46
2022/09/09 01:57:41;;;;;;;7.85;4.60;;;20.80;67.50;;;;;;4128900;28;20140;-49
2022/09/09 02:00:10;;;;;;;10.82;4.70;;;20.80;67.40;;;;;;4139220;28;20550;-47
2022/09/09 02:02:50;;;;;;;10.65;4.50;;;20.80;67.40;;;;;;4134623;28;20045;-44
2022/09/09 02:05:40;;;;;;;9.50;3.70;;;20.70;67.50;;;;;;4135880;28;20042;-45
2022/09/09 02:08:38;;;;;;;9.75;3.85;;;20.80;68.10;;;;;;4140281;28;20046;-46
2022/09/09 02:11:24;;;;;;;9.05;4.07;;;20.80;68.40;;;;;;4132900;28;20124;-44
2022/09/09 02:13:49;;;;;;;5.07;2.80;;;20.90;68.50;;;;;;4134673;28;20408;-45
2022/09/09 02:16:38;;;;;;;7.60;3.15;;;20.90;68.70;;;;;;4128023;28;20034;-49
2022/09/09 02:19:03;;;;;;;9.00;3.15;;;21.00;68.70;;;;;;4130088;28;20484;-42
2022/09/09 02:21:30;;;;;;;16.88;3.33;;;21.00;68.60;;;;;;4130217;28;20026;-45
2022/09/09 02:23:56;;;;;;;8.40;2.63;;;21.00;68.40;;;;;;4131245;28;20100;-46
2022/09/09 02:26:21;;;;;;;7.00;2.38;;;21.00;68.40;;;;;;4119113;28;20046;-44
2022/09/09 02:28:44;;;;;;;10.55;2.50;;;21.10;68.40;;;;;;4129401;28;20112;-52
2022/09/09 02:31:07;;;;;;;8.88;2.70;;;21.10;68.40;;;;;;4130739;28;20500;-47
2022/09/09 02:33:43;;;;;;;7.33;2.80;;;21.10;68.30;;;;;;4132424;28;20061;-49
2022/09/09 02:36:07;;;;;;;11.07;2.53;;;21.20;68.30;;;;;;4133916;28;20042;-46
2022/09/09 02:38:36;;;;;;;8.30;2.58;;;21.20;68.20;;;;;;4130592;28;20038;-46
2022/09/09 02:40:58;;;;;;;5.28;2.03;;;21.20;68.20;;;;;;4119097;28;20044;-50
2022/09/09 02:43:21;;;;;;;4.93;2.28;;;21.20;68.30;;;;;;4133912;28;20432;-50
2022/09/09 02:46:09;;;;;;;8.43;2.20;;;21.30;68.10;;;;;;4137046;28;20042;-51
2022/09/09 02:48:55;;;;;;;9.55;2.53;;;21.20;67.90;;;;;;4122626;28;20350;-48
2022/09/09 02:51:52;;;;;;;7.55;2.15;;;21.30;68.20;;;;;;4131873;28;20530;-46
2022/09/09 02:54:18;;;;;;;7.43;2.33;;;21.30;68.10;;;;;;4129392;28;20224;-46
2022/09/09 02:56:46;;;;;;;6.28;2.05;;;21.30;68.00;;;;;;4132529;28;20036;-50
2022/09/09 02:59:09;;;;;;;3.83;1.83;;;21.40;68.00;;;;;;4130003;28;20040;-46
2022/09/09 03:01:32;;;;;;;4.28;1.98;;;21.40;68.00;;;;;;4127893;28;21119;-50
2022/09/09 03:03:55;;;;;;;9.40;1.63;;;21.40;68.00;;;;;;4128539;28;20073;-48
2022/09/09 03:06:17;;;;;;;5.28;1.85;;;21.50;67.90;;;;;;4129752;28;20046;-48
2022/09/09 03:08:40;;;;;;;3.42;1.63;;;21.50;67.90;;;;;;4122417;28;20698;-48
2022/09/09 03:11:03;;;;;;;5.32;2.08;;;21.50;68.00;;;;;;4132324;28;20157;-47
2022/09/09 03:13:25;;;;;;;10.75;1.85;;;21.50;67.90;;;;;;4132225;28;20434;-46
2022/09/09 03:15:49;;;;;;;5.38;1.63;;;21.60;67.90;;;;;;4134162;28;20550;-48
2022/09/09 03:18:11;;;;;;;4.85;1.50;;;21.60;67.80;;;;;;4131987;28;20034;-45
2022/09/09 03:20:35;;;;;;;3.50;1.48;;;21.60;67.70;;;;;;4133239;28;20041;-47
2022/09/09 03:22:59;;;;;;;2.38;1.25;;;21.70;67.70;;;;;;4132474;28;20112;-45
2022/09/09 03:25:26;;;;;;;3.50;1.45;;;21.70;67.60;;;;;;4133834;28;20056;-47
2022/09/09 03:27:49;;;;;;;3.40;1.58;;;21.70;67.60;;;;;;4133986;28;20048;-46
2022/09/09 03:30:12;;;;;;;2.47;1.35;;;21.70;67.50;;;;;;4137522;28;20050;-42
2022/09/09 03:32:34;;;;;;;3.60;1.40;;;21.70;67.50;;;;;;4143832;28;20069;-47
2022/09/09 03:34:57;;;;;;;4.70;1.48;;;21.70;67.60;;;;;;4153200;28;20117;-45
2022/09/09 03:37:20;;;;;;;9.45;1.70;;;21.70;67.70;;;;;;4156091;28;20064;-45
2022/09/09 03:39:46;;;;;;;10.50;1.67;;;21.70;67.80;;;;;;4152933;28;20970;-46
2022/09/09 03:42:08;;;;;;;5.20;1.30;;;21.70;67.70;;;;;;4150921;28;20041;-46
2022/09/09 03:44:31;;;;;;;3.38;1.30;;;21.70;67.70;;;;;;4150651;28;20033;-47
2022/09/09 03:46:54;;;;;;;6.90;1.33;;;21.80;67.70;;;;;;4148965;28;20156;-48
2022/09/09 03:49:16;;;;;;;2.25;1.02;;;21.80;67.70;;;;;;4153337;28;20115;-45
2022/09/09 03:51:40;;;;;;;2.30;0.80;;;21.80;67.70;;;;;;4149827;28;20040;-44
2022/09/09 03:54:04;;;;;;;6.35;1.27;;;21.80;67.60;;;;;;4150082;28;20038;-47
2022/09/09 03:56:27;;;;;;;1.52;0.80;;;21.90;67.70;;;;;;4150758;28;20044;-47
2022/09/09 03:58:49;;;;;;;1.70;1.05;;;21.90;67.80;;;;;;4150515;28;20502;-48
2022/09/09 04:01:14;;;;;;;4.25;1.55;;;21.90;67.50;;;;;;4149179;28;20041;-45
2022/09/09 04:03:37;;;;;;;1.90;1.17;;;22.00;67.70;;;;;;4148771;28;20033;-44
2022/09/09 04:06:03;;;;;;;3.30;1.13;;;22.10;67.70;;;;;;4145615;28;20053;-46
2022/09/09 04:08:27;;;;;;;2.85;1.00;;;22.10;67.40;;;;;;4151628;28;20441;-50
2022/09/09 04:10:50;;;;;;;2.95;0.82;;;22.10;67.30;;;;;;4150085;28;20103;-48
2022/09/09 04:13:15;;;;;;;1.90;1.13;;;22.20;67.10;;;;;;4135707;28;20038;-43
2022/09/09 04:15:37;;;;;;;5.00;1.05;;;22.20;67.00;;;;;;4145959;28;20038;-42
2022/09/09 04:18:00;;;;;;;6.40;1.38;;;22.20;67.00;;;;;;4150856;28;20044;-53
2022/09/09 04:20:23;;;;;;;4.72;1.50;;;22.20;67.40;;;;;;4155321;28;20540;-43
2022/09/09 04:22:46;;;;;;;4.25;2.63;;;22.20;67.30;;;;;;4144167;28;20038;-46
2022/09/09 04:25:08;;;;;;;6.25;1.38;;;22.30;67.90;;;;;;4154800;28;20063;-49
2022/09/09 04:27:31;;;;;;;5.68;1.33;;;22.40;66.70;;;;;;4154378;28;20045;-46
2022/09/09 04:29:55;;;;;;;3.75;1.33;;;22.50;65.80;;;;;;4152057;28;20037;-46
2022/09/09 04:32:17;;;;;;;6.07;1.60;;;22.50;65.00;;;;;;4146864;28;20050;-42
2022/09/09 04:34:41;;;;;;;3.08;1.42;;;22.60;65.10;;;;;;4129209;28;20129;-46
2022/09/09 04:37:03;;;;;;;7.78;1.98;;;22.60;65.30;;;;;;4139333;28;20530;-46
2022/09/09 04:39:26;;;;;;;3.58;1.17;;;22.70;65.20;;;;;;4137362;28;20049;-42
2022/09/09 04:41:49;;;;;;;5.57;1.25;;;22.80;65.10;;;;;;4118549;28;20629;-42
2022/09/09 04:44:12;;;;;;;1.02;0.88;;;22.80;65.20;;;;;;4129042;28;20042;-42
2022/09/09 04:46:34;;;;;;;3.08;0.80;;;22.90;65.40;;;;;;4128850;28;20050;-47
2022/09/09 04:48:57;;;;;;;2.45;0.85;;;22.90;66.00;;;;;;4124090;28;20511;-44
2022/09/09 04:51:20;;;;;;;2.53;0.77;;;22.90;65.50;;;;;;4121142;28;20049;-45
2022/09/09 04:53:42;;;;;;;2.08;0.65;;;22.90;65.50;;;;;;4125785;28;20508;-44
2022/09/09 04:56:06;;;;;;;1.77;0.77;;;22.90;65.70;;;;;;4129083;28;20521;-47
2022/09/09 04:58:28;;;;;;;;;;;23.00;65.90;;;;;;4128655;28;20116;-46
2022/09/09 05:00:51;;;;;;;0.85;0.50;;;23.10;65.80;;;;;;4115328;28;19937;-44
2022/09/09 05:03:14;;;;;;;1.08;0.60;;;23.20;65.60;;;;;;4131969;28;20455;-46
2022/09/09 05:05:36;;;;;;;1.33;0.93;;;23.30;65.40;;;;;;4111306;28;20516;-44
2022/09/09 05:08:04;;;;;;;1.33;0.80;;;23.40;65.30;;;;;;4123761;28;20045;-43
2022/09/09 05:10:27;;;;;;;1.33;0.68;;;23.40;65.00;;;;;;4123817;28;20026;-43
2022/09/09 05:12:56;;;;;;;2.05;0.70;;;23.50;65.00;;;;;;4116321;28;20450;-42
2022/09/09 05:15:20;;;;;;;0.77;0.52;;;23.50;65.00;;;;;;4142695;28;20045;-43
2022/09/09 05:17:43;;;;;;;2.03;0.57;;;23.40;65.00;;;;;;4146389;28;20129;-44
2022/09/09 05:20:06;;;;;;;1.83;0.68;;;23.40;65.10;;;;;;4142990;28;20052;-44
2022/09/09 05:22:30;;;;;;;2.50;0.75;;;23.40;65.20;;;;;;4132551;28;20104;-43
2022/09/09 05:24:52;;;;;;;1.48;0.57;;;23.30;65.20;;;;;;4135343;28;20042;-44
2022/09/09 05:27:15;;;;;;;1.45;0.60;;;23.30;65.40;;;;;;4135066;28;20056;-46
2022/09/09 05:29:38;;;;;;;1.85;0.60;;;23.30;65.60;;;;;;4131670;28;20093;-45
2022/09/09 05:32:00;;;;;;;0.75;0.55;;;23.30;65.70;;;;;;4127799;28;20068;-47
2022/09/09 05:34:23;;;;;;;2.35;0.85;;;23.30;65.70;;;;;;4126050;28;20510;-45
2022/09/09 05:36:46;;;;;;;0.90;0.55;;;23.20;65.80;;;;;;4114887;28;20056;-49
2022/09/09 05:39:11;;;;;;;2.30;0.50;;;23.20;65.90;;;;;;4129109;28;20038;-44
2022/09/09 05:41:35;;;;;;;0.98;0.68;;;23.20;65.90;;;;;;4129109;28;20042;-48
2022/09/09 05:44:01;;;;;;;1.83;0.60;;;23.20;65.90;;;;;;4132299;28;20427;-50
2022/09/09 05:46:27;;;;;;;1.45;0.70;;;23.10;66.00;;;;;;4133782;28;20034;-44
2022/09/09 05:48:51;;;;;;;0.95;0.68;;;23.10;66.10;;;;;;4133389;28;20530;-47
2022/09/09 05:51:17;;;;;;;1.63;0.68;;;23.10;66.10;;;;;;4140025;28;20120;-46
2022/09/09 05:53:39;;;;;;;1.08;0.55;;;23.10;66.10;;;;;;4137347;28;20034;-50
2022/09/09 05:56:07;;;;;;;2.03;0.82;;;23.10;66.10;;;;;;4130450;28;20129;-46
2022/09/09 05:58:30;;;;;;;1.17;0.57;;;23.10;66.10;;;;;;4131165;28;20137;-46
2022/09/09 06:00:53;;;;;;;1.90;0.65;;;23.10;66.00;;;;;;4136353;28;20088;-45
2022/09/09 06:03:16;;;;;;;2.30;0.90;;;23.10;66.10;;;;;;4131973;28;20042;-44
2022/09/09 06:05:39;;;;;;;1.42;0.70;;;23.20;66.50;;;;;;4135190;28;20030;-46
2022/09/09 06:08:02;;;;;;;1.02;0.70;;;23.30;67.00;;;;;;4131462;28;20053;-42
2022/09/09 06:10:24;;;;;;;0.70;0.70;;;23.40;65.90;;;;;;4130283;28;20038;-46
2022/09/09 06:12:47;;;;;;;1.77;0.77;;;23.40;65.60;;;;;;4133552;28;20037;-45
2022/09/09 06:15:10;;;;;;;1.92;0.63;;;23.60;65.70;;;;;;4129567;28;20042;-47
2022/09/09 06:17:36;;;;;;;2.87;0.70;;;23.70;65.40;;;;;;4129643;28;20105;-47
2022/09/09 06:19:59;;;;;;;1.67;0.70;;;23.80;64.70;;;;;;4133524;28;20517;-54
2022/09/09 06:22:21;;;;;;;2.65;0.88;;;23.90;64.10;;;;;;4131673;28;20034;-44
2022/09/09 06:24:44;;;;;;;1.90;0.80;;;24.00;63.30;;;;;;4133609;28;20318;-49
2022/09/09 06:27:07;;;;;;;3.00;0.80;;;24.10;63.10;;;;;;4133641;28;20042;-46
2022/09/09 06:29:29;;;;;;;1.67;1.00;;;24.10;63.20;;;;;;4131467;28;20045;-45
2022/09/09 06:31:52;;;;;;;3.28;0.80;;;24.20;62.80;;;;;;4137674;28;20509;-50
2022/09/09 06:34:15;;;;;;;1.15;0.77;;;24.10;62.70;;;;;;4150821;28;20116;-50
2022/09/09 06:36:39;;;;;;;1.40;0.85;;;24.20;63.40;;;;;;4151448;28;20101;-43
2022/09/09 06:39:02;;;;;;;2.22;1.02;;;24.20;63.10;;;;;;4154025;28;20434;-45
2022/09/09 06:41:30;;;;;;;1.25;0.60;;;24.30;62.90;;;;;;4154451;28;20037;-49
2022/09/09 06:43:52;;;;;;;3.05;1.15;;;24.40;62.70;;;;;;4151509;28;20033;-48
2022/09/09 06:46:16;;;;;;;1.48;0.93;;;24.50;62.40;;;;;;4155061;28;20120;-45
2022/09/09 06:48:41;;;;;;;;;;;24.60;62.20;;;;;;4148359;28;20033;-45
2022/09/09 06:51:05;;;;;;;2.90;0.80;;;24.60;61.40;;;;;;4157710;28;20310;-45
2022/09/09 06:53:28;;;;;;;1.58;0.80;;;24.60;60.80;;;;;;4153639;28;20033;-44
2022/09/09 06:55:51;;;;;;;2.60;1.02;;;24.50;60.60;;;;;;4156269;28;20109;-47
2022/09/09 06:58:14;;;;;;;1.10;0.73;;;24.40;61.40;;;;;;4157952;28;20110;-43
2022/09/09 07:00:39;;;;;;;0.80;0.70;;;24.30;61.50;;;;;;4161182;28;20557;-46
2022/09/09 07:03:02;;;;;;;0.95;0.80;;;24.20;62.00;;;;;;4154733;28;20050;-49
2022/09/09 07:05:25;;;;;;;1.98;0.82;;;24.20;62.10;;;;;;4159092;28;20079;-45
2022/09/09 07:07:48;;;;;;;1.48;0.85;;;24.20;62.40;;;;;;4157719;28;20533;-46
2022/09/09 07:10:11;;;;;;;1.08;0.80;;;24.20;62.30;;;;;;4159403;28;20518;-48
2022/09/09 07:12:33;;;;;;;2.50;1.52;;;24.20;62.30;;;;;;4164274;28;20068;-45
2022/09/09 07:14:56;;;;;;;3.47;1.35;;;24.40;62.40;;;;;;4146742;28;20037;-47
2022/09/09 07:17:18;;;;;;;1.20;0.95;;;24.60;61.60;;;;;;4147565;28;20049;-45
2022/09/09 07:19:42;;;;;;;2.20;1.02;;;24.60;61.50;;;;;;4145600;28;20500;-45
2022/09/09 07:22:06;;;;;;;3.67;1.30;;;24.40;61.50;;;;;;4152778;28;20041;-46
2022/09/09 07:24:30;;;;;;;11.00;1.80;;;24.30;61.70;;;;;;4155818;28;20033;-45
2022/09/09 07:26:51;;;;;;;;;;;24.20;62.10;;;;;;4149738;28;20095;-48
2022/09/09 07:29:14;;;;;;;2.70;1.67;;;24.10;62.50;;;;;;4163288;28;19943;-45
2022/09/09 07:31:39;;;;;;;5.57;2.20;;;24.00;63.10;;;;;;4157214;28;20037;-46
2022/09/09 07:34:02;;;;;;;3.50;1.88;;;23.90;63.40;;;;;;4138900;28;20053;-50
2022/09/09 07:36:30;;;;;;;3.38;2.20;;;23.80;63.70;;;;;;4133284;28;20347;-44
2022/09/09 07:39:02;;;;;;;4.07;2.22;;;23.80;63.70;;;;;;4139137;28;20046;-46
2022/09/09 07:41:45;;;;;;;7.65;2.00;;;23.70;63.80;;;;;;4126334;28;20074;-43
2022/09/09 07:44:13;;;;;;;3.83;1.80;;;23.70;64.40;;;;;;4117432;28;20037;-47
2022/09/09 07:46:38;;;;;;;4.03;1.80;;;23.70;64.60;;;;;;4127690;28;20409;-44
2022/09/09 07:49:02;;;;;;;13.85;2.03;;;23.70;64.90;;;;;;4130236;28;20038;-44
2022/09/09 07:51:36;;;;;;;5.55;2.20;;;23.60;64.90;;;;;;4132408;28;20168;-44
2022/09/09 07:54:01;;;;;;;5.10;2.40;;;23.60;64.80;;;;;;4127342;28;20125;-46
2022/09/09 07:56:25;;;;;;;3.25;1.95;;;23.60;64.90;;;;;;4124145;28;20041;-43
2022/09/09 07:58:48;;;;;;;4.03;2.10;;;23.60;65.20;;;;;;4127927;28;20717;-48
2022/09/09 08:01:23;;;;;;;5.00;2.33;;;23.50;65.20;;;;;;4118393;28;20255;-45
2022/09/09 08:03:47;;;;;;;4.43;2.65;;;23.50;64.70;;;;;;4126246;28;20046;-50
2022/09/09 08:06:11;;;;;;;5.38;2.83;;;23.50;64.10;;;;;;4122250;28;20104;-49
2022/09/09 08:08:34;;;;;;;3.38;2.40;;;23.50;63.60;;;;;;4121276;28;20049;-47
2022/09/09 08:11:15;;;;;;;5.43;3.00;;;23.40;63.20;;;;;;4123985;28;20044;-50
2022/09/09 08:13:39;;;;;;;5.03;2.70;;;23.30;63.10;;;;;;4124357;28;20420;-46
2022/09/09 08:16:05;;;;;;;;;;;23.20;63.20;;;;;;4129883;28;20092;-49
2022/09/09 08:18:28;;;;;;;3.58;2.40;;;23.20;63.40;;;;;;4128210;28;19924;-50
2022/09/09 08:20:51;;;;;;;4.43;2.45;;;23.10;63.30;;;;;;4113433;28;20101;-47
2022/09/09 08:23:14;;;;;;;4.75;2.83;;;23.00;63.40;;;;;;4130476;28;20041;-48
2022/09/09 08:25:36;;;;;;;4.43;2.30;;;23.00;63.60;;;;;;4127907;28;20069;-51
2022/09/09 08:27:59;;;;;;;4.75;2.40;;;22.90;63.70;;;;;;4131175;28;20061;-47
2022/09/09 08:30:22;;;;;;;4.30;2.80;;;22.90;63.70;;;;;;4124618;28;20042;-50
2022/09/09 08:32:45;;;;;;;4.35;2.35;;;22.80;63.80;;;;;;4138527;28;20561;-47
2022/09/09 08:35:08;;;;;;;4.43;2.83;;;22.70;63.90;;;;;;4144668;28;21564;-50
2022/09/09 08:37:34;;;;;;;4.57;2.83;;;22.70;64.00;;;;;;4153898;28;20049;-48
2022/09/09 08:39:56;;;;;;;6.93;3.00;;;22.70;64.30;;;;;;4139997;28;20041;-47
2022/09/09 08:42:33;;;;;;;4.18;2.70;;;22.60;64.20;;;;;;4148458;28;20163;-47
2022/09/09 08:44:56;;;;;;;4.43;2.53;;;22.60;64.30;;;;;;4143494;28;20098;-48
2022/09/09 08:47:46;;;;;;;4.22;2.70;;;22.50;64.50;;;;;;4144918;28;20144;-49
2022/09/09 08:50:25;;;;;;;4.65;2.53;;;22.50;64.50;;;;;;4153118;28;20041;-47
2022/09/09 08:53:11;;;;;;;3.97;2.78;;;22.40;64.60;;;;;;4138583;28;20034;-51
2022/09/09 08:55:46;;;;;;;3.35;2.42;;;22.40;64.80;;;;;;4144276;28;20033;-48
2022/09/09 08:58:15;;;;;;;4.15;2.65;;;22.30;65.00;;;;;;4149465;28;20534;-49
2022/09/09 09:01:08;;;;;;;4.20;2.50;;;22.30;65.20;;;;;;4149069;28;20038;-49
2022/09/09 09:03:33;;;;;;;4.80;3.05;;;22.30;65.40;;;;;;4157576;28;20064;-49
2022/09/09 09:06:02;;;;;;;6.40;3.08;;;22.20;65.50;;;;;;4161065;28;20035;-47
2022/09/09 09:08:32;;;;;;;4.18;2.60;;;22.20;65.50;;;;;;4140557;28;20052;-50
2022/09/09 09:11:00;;;;;;;5.03;3.20;;;22.20;65.60;;;;;;4156505;28;20415;-50
2022/09/09 09:13:30;;;;;;;4.45;2.97;;;22.10;65.70;;;;;;4141013;28;20128;-48
2022/09/09 09:16:07;;;;;;;4.93;3.25;;;22.10;65.90;;;;;;4152870;28;20136;-46
2022/09/09 09:18:29;;;;;;;4.80;3.05;;;22.10;66.00;;;;;;4157271;28;20095;-47
2022/09/09 09:20:57;;;;;;;5.30;2.80;;;22.10;66.00;;;;;;4155953;28;20033;-47
2022/09/09 09:23:26;;;;;;;5.88;3.20;;;22.00;66.00;;;;;;4140591;28;20041;-48
2022/09/09 09:25:50;;;;;;;5.07;3.17;;;22.00;66.10;;;;;;4144556;28;20152;-47
2022/09/09 09:28:23;;;;;;;;;;;21.90;66.10;;;;;;4144758;28;20171;-46
2022/09/09 09:31:04;;;;;;;3.63;2.50;;;21.90;66.30;;;;;;4142717;28;19920;-47
2022/09/09 09:33:27;;;;;;;5.32;3.38;;;21.90;66.30;;;;;;4133993;28;20045;-46
2022/09/09 09:35:50;;;;;;;4.50;3.15;;;21.90;66.40;;;;;;4132853;28;20047;-47
2022/09/09 09:38:24;;;;;;;6.15;3.13;;;21.90;66.40;;;;;;4128294;28;20053;-46
2022/09/09 09:40:55;;;;;;;7.45;3.40;;;21.90;66.50;;;;;;4129435;28;20575;-49
2022/09/09 09:43:26;;;;;;;5.18;3.22;;;21.80;66.40;;;;;;4126498;28;20424;-53
2022/09/09 09:45:49;;;;;;;5.07;3.13;;;21.70;66.50;;;;;;4130489;28;20389;-47
2022/09/09 09:48:13;;;;;;;4.60;3.13;;;21.70;66.50;;;;;;4127183;28;20306;-50
2022/09/09 09:50:41;;;;;;;4.75;3.13;;;21.70;66.60;;;;;;4128495;28;20084;-52
2022/09/09 09:53:19;;;;;;;4.70;2.80;;;21.70;66.50;;;;;;4128678;28;20616;-49
2022/09/09 09:56:06;;;;;;;4.97;2.95;;;21.60;66.50;;;;;;4132252;28;20037;-51
2022/09/09 09:58:33;;;;;;;4.25;2.80;;;21.60;66.50;;;;;;4131572;28;20038;-50
2022/09/09 10:00:56;;;;;;;3.70;2.60;;;21.60;66.50;;;;;;4129827;28;20038;-49
2022/09/09 10:03:31;;;;;;;3.90;2.70;;;21.60;66.50;;;;;;4119666;28;20139;-45
2022/09/09 10:05:54;;;;;;;4.75;3.08;;;21.50;66.40;;;;;;4128625;28;20137;-45
2022/09/09 10:08:18;;;;;;;4.05;2.58;;;21.50;66.50;;;;;;4129706;28;20030;-48
2022/09/09 10:11:10;;;;;;;4.32;2.50;;;21.50;66.40;;;;;;4129736;28;20042;-47
2022/09/09 10:13:54;;;;;;;4.55;2.53;;;21.50;66.40;;;;;;4129610;28;20184;-46
2022/09/09 10:16:36;;;;;;;4.35;2.55;;;21.50;66.40;;;;;;4130366;28;20591;-45
2022/09/09 10:19:03;;;;;;;3.38;2.60;;;21.40;66.40;;;;;;4133299;28;20456;-46
2022/09/09 10:21:57;;;;;;;3.30;2.30;;;21.40;66.40;;;;;;4132715;28;20191;-45
2022/09/09 10:25:01;;;;;;;3.47;2.28;;;21.40;66.40;;;;;;4132722;28;20095;-46
2022/09/09 10:27:54;;;;;;;3.67;2.50;;;21.40;66.40;;;;;;4120464;28;20034;-46
2022/09/09 10:30:25;;;;;;;3.95;2.58;;;21.30;66.30;;;;;;4132516;28;20046;-51
2022/09/09 10:32:57;;;;;;;3.40;2.40;;;21.30;66.10;;;;;;4144597;28;20072;-47
2022/09/09 10:35:36;;;;;;;3.30;2.10;;;21.30;66.40;;;;;;4146874;28;20132;-45
2022/09/09 10:38:18;;;;;;;3.70;2.20;;;21.30;66.10;;;;;;4146568;28;20052;-45
2022/09/09 10:40:56;;;;;;;3.17;2.13;;;21.20;66.20;;;;;;4144936;28;20044;-45
2022/09/09 10:43:39;;;;;;;4.25;2.38;;;21.20;66.10;;;;;;4148174;28;20041;-46
2022/09/09 10:46:40;;;;;;;3.70;2.13;;;21.20;66.10;;;;;;4148830;28;20049;-45
2022/09/09 10:49:17;;;;;;;4.22;2.08;;;21.20;66.10;;;;;;4149837;28;20044;-44
2022/09/09 10:51:58;;;;;;;3.70;1.88;;;21.20;66.10;;;;;;4149121;28;20046;-44
2022/09/09 10:54:25;;;;;;;3.45;1.90;;;21.20;66.10;;;;;;4144569;28;20043;-44
2022/09/09 10:56:56;;;;;;;3.22;2.00;;;21.10;66.00;;;;;;4136930;28;20120;-45
2022/09/09 10:59:26;;;;;;;3.97;2.30;;;21.10;66.10;;;;;;4148934;28;20499;-46
2022/09/09 11:02:10;;;;;;;3.13;2.00;;;21.10;66.10;;;;;;4135814;28;20038;-46
2022/09/09 11:04:40;;;;;;;2.83;1.98;;;21.00;65.90;;;;;;4146319;28;20045;-45
2022/09/09 11:07:09;;;;;;;3.28;1.80;;;21.00;66.10;;;;;;4141050;28;20967;-44
2022/09/09 11:09:38;;;;;;;4.03;2.40;;;21.00;66.20;;;;;;4146282;28;20068;-45
2022/09/09 11:12:02;;;;;;;2.95;2.13;;;21.00;66.20;;;;;;4147183;28;20437;-45
2022/09/09 11:14:30;;;;;;;5.47;2.40;;;21.00;66.40;;;;;;4149181;28;20478;-48
2022/09/09 11:17:07;;;;;;;4.05;2.45;;;21.00;66.50;;;;;;4147003;28;20140;-44
2022/09/09 11:19:56;;;;;;;3.50;2.30;;;20.90;66.30;;;;;;4147629;28;20470;-47
2022/09/09 11:22:34;;;;;;;4.30;2.03;;;20.90;66.40;;;;;;4149502;28;20060;-47
2022/09/09 11:25:28;;;;;;;3.30;2.25;;;20.90;66.40;;;;;;4147407;28;20140;-45
2022/09/09 11:28:15;;;;;;;2.80;2.10;;;20.90;66.50;;;;;;4148014;28;20103;-47
2022/09/09 11:30:44;;;;;;;3.58;2.17;;;20.80;66.30;;;;;;4145518;28;20382;-47
2022/09/09 11:33:21;;;;;;;3.13;1.90;;;20.80;66.20;;;;;;4134475;28;20068;-47
2022/09/09 11:36:04;;;;;;;3.17;2.17;;;20.80;66.30;;;;;;4130194;28;20484;-44
2022/09/09 11:38:30;;;;;;;3.28;2.10;;;20.80;66.40;;;;;;4130879;28;20046;-45
2022/09/09 11:41:06;;;;;;;2.08;1.50;;;20.80;66.20;;;;;;4131264;28;20397;-45
2022/09/09 11:43:44;;;;;;;3.10;1.90;;;20.80;66.30;;;;;;4132833;28;20037;-47
2022/09/09 11:46:08;;;;;;;3.47;1.80;;;20.80;66.20;;;;;;4133866;28;20057;-45
2022/09/09 11:48:38;;;;;;;2.65;1.92;;;20.70;66.30;;;;;;4131493;28;20467;-47
2022/09/09 11:51:07;;;;;;;2.20;1.65;;;20.70;66.30;;;;;;4130810;28;20165;-44
2022/09/09 11:53:29;;;;;;;3.13;2.03;;;20.70;66.30;;;;;;4130884;28;20037;-47
2022/09/09 11:56:12;;;;;;;2.67;1.80;;;20.70;66.20;;;;;;4131628;28;20254;-45
2022/09/09 11:58:41;;;;;;;3.22;2.00;;;20.60;66.30;;;;;;4119198;28;21249;-47
2022/09/09 12:01:37;;;;;;;3.38;2.00;;;20.60;66.10;;;;;;4131694;28;20041;-45
2022/09/09 12:04:24;;;;;;;3.22;1.85;;;20.60;66.40;;;;;;4118336;28;20041;-47
2022/09/09 12:07:09;;;;;;;3.28;1.80;;;20.60;66.20;;;;;;4129704;28;20030;-45
2022/09/09 12:09:45;;;;;;;3.05;1.80;;;20.60;66.20;;;;;;4096932;28;20046;-47
2022/09/09 12:12:14;;;;;;;3.80;2.20;;;20.50;66.00;;;;;;4128359;28;20626;-45
2022/09/09 12:14:45;;;;;;;2.22;1.60;;;20.60;66.20;;;;;;4124085;28;20046;-45
2022/09/09 12:17:28;;;;;;;2.20;1.60;;;20.50;66.00;;;;;;4130402;28;20050;-44
2022/09/09 12:20:13;;;;;;;3.20;2.00;;;20.50;66.00;;;;;;4125859;28;20204;-46
2022/09/09 12:23:00;;;;;;;2.58;1.40;;;20.50;66.10;;;;;;4126605;28;20436;-44
2022/09/09 12:25:41;;;;;;;1.52;1.38;;;20.50;66.00;;;;;;4126667;28;20367;-46
2022/09/09 12:28:16;;;;;;;2.25;1.60;;;20.40;66.10;;;;;;4126167;28;20048;-45
2022/09/09 12:31:07;;;;;;;2.22;1.50;;;20.40;66.10;;;;;;4127107;28;20038;-45
2022/09/09 12:33:42;;;;;;;2.25;1.50;;;20.40;65.80;;;;;;4127536;28;20049;-45
2022/09/09 12:36:09;;;;;;;2.30;1.30;;;20.40;66.20;;;;;;4127278;28;20538;-45
2022/09/09 12:38:36;;;;;;;2.00;1.42;;;20.40;66.00;;;;;;4133208;28;20061;-50
2022/09/09 12:41:00;;;;;;;2.05;1.38;;;20.30;66.20;;;;;;4133396;28;20038;-47
2022/09/09 12:43:25;;;;;;;2.25;1.30;;;20.30;66.20;;;;;;4132139;28;20045;-45
2022/09/09 12:45:50;;;;;;;2.45;1.63;;;20.30;66.30;;;;;;4131392;28;20524;-46
2022/09/09 12:48:16;;;;;;;2.17;1.35;;;20.30;66.20;;;;;;4132348;28;20243;-47
2022/09/09 12:50:55;;;;;;;2.58;1.60;;;20.30;66.30;;;;;;4132381;28;20044;-47
2022/09/09 12:53:38;;;;;;;1.85;1.40;;;20.30;66.30;;;;;;4132570;28;20117;-45
2022/09/09 12:56:07;;;;;;;1.60;0.95;;;20.30;66.30;;;;;;4133738;28;20140;-45
2022/09/09 12:58:34;;;;;;;1.58;1.13;;;20.30;66.30;;;;;;4135146;28;20064;-47
2022/09/09 13:00:57;;;;;;;2.08;1.38;;;20.20;66.40;;;;;;4135344;28;20037;-44